Station Historical Data
Daily Summary for May 30, 2017 Units:  English    Metric   Both
« Previous Day
Next Day »
Daily Weekly Monthly Yearly Custom
  High: Low: Average:
Temperature: 70.9 °F 64.5 °F 66.5 °F
Dew Point: 67.9 °F 63.0 °F 64.5 °F
Humidity: 95% 88% 93%
Wind Speed: 0.0mph 0.0mph 0mph
Wind Gust: 3.0mph - -
Wind- -
Pressure: 30.17 in 30.06 in -
Precipitation: 0.30 in    
Historical Graphs
 
 
Tabular Data for May 30, 2017
Time Temperature Dew Point Pressure Wind Wind Speed Wind Gust Humidity Rainfall Rate (Hourly) Conditions
00:00 66.1 °F 63.7 °F 30.08 in Calm     92% 0.01 in RA
00:10 66.0 °F 63.9 °F 30.08 in Calm     93% 0.00 in SCT
00:20 65.9 °F 63.8 °F 30.08 in Calm     93% 0.00 in SCT
00:40 65.9 °F 63.8 °F 30.07 in Calm     93% 0.00 in SCT
00:50 65.9 °F 63.8 °F 30.07 in Calm     93% 0.00 in SCT
01:00 65.9 °F 63.8 °F 30.08 in Calm     93% 0.00 in SCT
01:10 65.8 °F 63.7 °F 30.08 in Calm     93% 0.00 in SCT
01:20 65.9 °F 63.8 °F 30.08 in Calm     93% 0.00 in SCT
01:30 65.9 °F 63.8 °F 30.08 in Calm     93% 0.00 in SCT
01:40 65.9 °F 63.8 °F 30.08 in Calm     93% 0.00 in SCT
01:50 65.8 °F 63.7 °F 30.08 in Calm     93% 0.00 in SCT
02:00 65.8 °F 63.7 °F 30.07 in Calm     93% 0.00 in SCT
02:10 65.8 °F 63.7 °F 30.07 in Calm     93% 0.00 in SCT
02:20 65.7 °F 63.7 °F 30.07 in Calm     93% 0.00 in SCT
02:30 65.6 °F 63.5 °F 30.07 in Calm     93% 0.00 in SCT
02:40 65.6 °F 63.5 °F 30.08 in Calm     93% 0.00 in SCT
02:50 65.5 °F 63.4 °F 30.08 in Calm     93% 0.00 in SCT
03:00 64.5 °F 63.0 °F 30.07 in Calm     95% 0.00 in SCT
03:10 64.5 °F 63.0 °F 30.07 in Calm     95% 0.00 in SCT
03:20 64.5 °F 63.0 °F 30.07 in Calm     95% 0.00 in SCT
03:30 64.5 °F 63.0 °F 30.07 in Calm     95% 0.00 in SCT
03:40 64.5 °F 63.0 °F 30.07 in Calm     95% 0.00 in SCT
03:50 64.5 °F 63.0 °F 30.07 in Calm     95% 0.00 in SCT
04:00 64.5 °F 63.0 °F 30.07 in Calm     95% 0.00 in SCT
04:10 64.5 °F 63.0 °F 30.07 in Calm     95% 0.00 in SCT
04:30 64.5 °F 63.0 °F 30.07 in Calm     95% 0.00 in SCT
04:40 64.5 °F 63.0 °F 30.07 in Calm     95% 0.00 in SCT
04:50 64.5 °F 63.0 °F 30.07 in Calm     95% 0.00 in SCT
05:00 64.5 °F 63.0 °F 30.07 in Calm     95% 0.00 in SCT
05:10 64.5 °F 63.0 °F 30.07 in Calm     95% 0.00 in SCT
05:20 64.5 °F 63.0 °F 30.07 in Calm     95% 0.00 in SCT
05:30 64.5 °F 63.0 °F 30.08 in Calm     95% 0.00 in SCT
05:40 64.5 °F 63.0 °F 30.08 in Calm     95% 0.00 in SCT
05:50 64.5 °F 63.0 °F 30.09 in Calm     95% 0.00 in SCT
06:00 64.5 °F 63.0 °F 30.09 in Calm     95% 0.00 in SCT
06:10 64.5 °F 63.0 °F 30.09 in Calm     95% 0.00 in SCT
06:20 64.5 °F 63.0 °F 30.09 in Calm     95% 0.00 in SCT
06:30 64.5 °F 63.0 °F 30.09 in Calm     95% 0.00 in SCT
06:40 64.5 °F 63.0 °F 30.09 in Calm     95% 0.00 in SCT
06:50 64.5 °F 63.0 °F 30.10 in Calm     95% 0.00 in SCT
07:00 64.5 °F 63.0 °F 30.10 in Calm     95% 0.00 in SCT
07:10 64.5 °F 63.0 °F 30.11 in Calm     95% 0.00 in SCT
07:20 64.5 °F 63.0 °F 30.11 in Calm     95% 0.00 in SCT
07:30 64.5 °F 63.0 °F 30.11 in Calm     95% 0.00 in SCT
07:40 64.5 °F 63.0 °F 30.11 in Calm     95% 0.00 in SCT
07:50 64.5 °F 63.0 °F 30.12 in Calm     95% 0.00 in SCT
08:00 64.5 °F 63.0 °F 30.12 in Calm     95% 0.00 in SCT
08:10 64.5 °F 63.0 °F 30.12 in Calm     95% 0.00 in SCT
08:20 64.5 °F 63.0 °F 30.12 in Calm     95% 0.00 in SCT
08:30 64.5 °F 63.0 °F 30.12 in Calm     95% 0.00 in SCT
08:40 64.5 °F 63.0 °F 30.13 in Calm     95% 0.00 in SCT
08:50 64.5 °F 63.0 °F 30.13 in Calm     95% 0.00 in SCT
09:00 64.5 °F 63.0 °F 30.14 in Calm     95% 0.00 in SCT
09:10 64.5 °F 63.0 °F 30.14 in Calm     95% 0.00 in SCT
09:20 64.5 °F 63.0 °F 30.14 in Calm     95% 0.00 in SCT
09:30 64.5 °F 63.0 °F 30.14 in Calm     95% 0.00 in SCT
09:40 64.5 °F 63.0 °F 30.14 in Calm     95% 0.00 in SCT
09:50 64.5 °F 63.0 °F 30.14 in Calm     95% 0.00 in SCT
10:00 64.5 °F 63.0 °F 30.14 in Calm     95% 0.00 in SCT
10:10 64.5 °F 63.0 °F 30.14 in Calm     95% 0.00 in SCT
10:20 64.5 °F 63.0 °F 30.14 in Calm     95% 0.00 in SCT
10:30 64.5 °F 63.0 °F 30.14 in Calm     95% 0.00 in SCT
10:40 64.5 °F 63.0 °F 30.13 in Calm     95% 0.00 in SCT
10:50 64.5 °F 63.0 °F 30.14 in Calm     95% 0.00 in SCT
11:00 64.5 °F 63.0 °F 30.14 in Calm     95% 0.00 in SCT
11:10 69.1 °F 67.3 °F 30.14 in Calm     94% 0.00 in SCT
11:20 69.2 °F 67.4 °F 30.14 in Calm   1.0 mph 94% 0.00 in SCT
11:30 69.4 °F 67.6 °F 30.14 in Calm   1.0 mph 94% 0.00 in SCT
11:40 69.7 °F 67.9 °F 30.14 in Calm   1.0 mph 94% 0.00 in SCT
11:50 69.4 °F 67.6 °F 30.14 in Calm   1.0 mph 94% 0.00 in SCT
12:00 68.9 °F 66.8 °F 30.14 in Calm   1.0 mph 93% 0.00 in SCT
12:10 68.8 °F 67.0 °F 30.15 in Calm     94% 0.03 in RA
12:20 68.4 °F 66.3 °F 30.16 in Calm   1.0 mph 93% 0.06 in RA
12:30 68.1 °F 66.0 °F 30.17 in Calm   1.0 mph 93% 0.06 in RA
12:40 67.7 °F 65.6 °F 30.17 in Calm   1.0 mph 93% 0.03 in SCT
12:50 66.7 °F 64.6 °F 30.17 in Calm   1.0 mph 93% 0.03 in RA
13:00 66.7 °F 64.6 °F 30.17 in Calm     93% 0.02 in RA
13:10 66.7 °F 64.6 °F 30.16 in Calm     93% 0.01 in SCT
13:20 66.4 °F 64.3 °F 30.16 in Calm   1.0 mph 93% 0.02 in RA
13:30 66.3 °F 64.2 °F 30.16 in Calm   1.0 mph 93% 0.01 in SCT
13:40 66.2 °F 64.1 °F 30.16 in Calm   1.0 mph 93% 0.01 in SCT
13:50 65.8 °F 63.7 °F 30.15 in Calm   2.0 mph 93% 0.01 in SCT
14:00 65.7 °F 63.6 °F 30.15 in Calm   3.0 mph 93% 0.01 in SCT
14:10 66.3 °F 64.2 °F 30.15 in Calm   1.0 mph 93% 0.00 in SCT
14:20 66.6 °F 64.5 °F 30.14 in Calm     93% 0.00 in SCT
14:30 67.5 °F 65.4 °F 30.14 in Calm   1.0 mph 93% 0.00 in SCT
14:40 68.4 °F 66.3 °F 30.13 in Calm   1.0 mph 93% 0.00 in SCT
14:50 68.8 °F 66.4 °F 30.12 in Calm   1.0 mph 92% 0.00 in SCT
15:00 69.8 °F 67.4 °F 30.12 in Calm   1.0 mph 92% 0.00 in SCT
15:10 70.4 °F 67.3 °F 30.11 in Calm   1.0 mph 90% 0.00 in SCT
15:20 70.7 °F 67.3 °F 30.11 in Calm   1.0 mph 89% 0.00 in SCT
15:30 70.8 °F 67.1 °F 30.11 in Calm     88% 0.00 in SCT
15:40 70.9 °F 67.5 °F 30.11 in Calm     89% 0.00 in SCT
15:50 70.9 °F 67.2 °F 30.11 in Calm   1.0 mph 88% 0.00 in SCT
16:10 70.4 °F 67.0 °F 30.10 in Calm   1.0 mph 89% 0.00 in SCT
16:20 70.1 °F 67.1 °F 30.11 in Calm     90% 0.00 in SCT
16:30 70.0 °F 66.9 °F 30.10 in Calm     90% 0.00 in SCT
16:40 69.7 °F 66.6 °F 30.11 in Calm     90% 0.00 in SCT
16:50 69.7 °F 66.6 °F 30.12 in Calm     90% 0.00 in SCT
17:00 69.9 °F 67.2 °F 30.12 in Calm   1.0 mph 91% 0.00 in SCT
17:10 69.9 °F 67.1 °F 30.11 in Calm     91% 0.00 in SCT
17:20 69.7 °F 67.0 °F 30.11 in Calm     91% 0.00 in SCT
17:30 69.7 °F 67.0 °F 30.11 in Calm     91% 0.00 in SCT
17:40 69.6 °F 66.9 °F 30.10 in Calm     91% 0.00 in SCT
17:50 69.7 °F 67.3 °F 30.10 in Calm   1.0 mph 92% 0.00 in SCT
18:00 69.8 °F 67.4 °F 30.11 in Calm     92% 0.00 in SCT
18:10 69.9 °F 67.5 °F 30.10 in Calm     92% 0.00 in SCT
18:20 69.9 °F 67.5 °F 30.09 in Calm     92% 0.00 in SCT
18:40 69.9 °F 67.5 °F 30.09 in Calm     92% 0.00 in SCT
18:50 69.8 °F 67.4 °F 30.09 in Calm     92% 0.00 in SCT
19:00 69.6 °F 66.8 °F 30.08 in Calm     91% 0.00 in SCT
19:10 68.8 °F 65.5 °F 30.07 in Calm   1.0 mph 89% 0.00 in SCT
19:20 68.5 °F 65.2 °F 30.06 in Calm   1.0 mph 89% 0.00 in SCT
19:30 68.4 °F 65.4 °F 30.06 in Calm     90% 0.00 in SCT
19:40 68.1 °F 65.4 °F 30.07 in Calm     91% 0.00 in SCT
19:50 68.0 °F 65.3 °F 30.07 in Calm     91% 0.00 in SCT
20:00 67.9 °F 65.2 °F 30.08 in Calm     91% 0.00 in SCT
20:10 67.7 °F 65.0 °F 30.09 in Calm     91% 0.00 in SCT
20:20 67.5 °F 64.8 °F 30.09 in Calm   1.0 mph 91% 0.00 in SCT
20:30 67.3 °F 64.6 °F 30.09 in Calm     91% 0.00 in SCT
20:40 67.1 °F 64.4 °F 30.09 in Calm     91% 0.00 in SCT
20:50 66.8 °F 64.4 °F 30.09 in Calm     92% 0.00 in SCT
21:00 66.6 °F 64.2 °F 30.09 in Calm     92% 0.00 in SCT
21:10 66.5 °F 64.1 °F 30.10 in Calm     92% 0.00 in SCT
21:20 66.3 °F 63.9 °F 30.10 in Calm     92% 0.00 in SCT
21:30 66.1 °F 63.7 °F 30.10 in Calm     92% 0.00 in SCT
21:40 66.1 °F 63.7 °F 30.10 in Calm     92% 0.00 in SCT
21:50 66.2 °F 64.1 °F 30.11 in Calm     93% 0.00 in SCT
22:00 66.1 °F 64.0 °F 30.11 in Calm     93% 0.00 in SCT
22:10 65.9 °F 63.8 °F 30.11 in Calm     93% 0.00 in SCT
22:20 65.8 °F 63.7 °F 30.11 in Calm     93% 0.00 in SCT
22:30 65.7 °F 63.6 °F 30.12 in Calm     93% 0.00 in SCT
22:40 65.7 °F 63.7 °F 30.12 in Calm     93% 0.00 in SCT
22:50 65.8 °F 63.7 °F 30.12 in Calm     93% 0.00 in SCT
23:00 65.7 °F 63.6 °F 30.12 in Calm     93% 0.00 in SCT
23:10 65.7 °F 63.6 °F 30.12 in Calm     93% 0.00 in SCT
23:20 65.8 °F 63.7 °F 30.12 in Calm     93% 0.00 in SCT
23:30 65.8 °F 63.7 °F 30.12 in Calm     93% 0.00 in SCT
23:40 65.7 °F 63.6 °F 30.12 in Calm     93% 0.00 in SCT
23:50 65.7 °F 63.6 °F 30.12 in Calm     93% 0.00 in SCT
Piedmont Bend
Compliments of Weather Underground - 4 mb